Time;durP1;ratioP1;P1;durP2;ratioP2;P2;SDS_P1;SDS_P2;PMS_P1;PMS_P2;Temp;Humidity;BMP_temperature;BMP_pressure;BME280_temperature;BME280_humidity;BME280_pressure;Samples;Min_cycle;Max_cycle;Signal;HPM_P1;HPM_P2
2022/09/04 00:01:05;;;;;;;14.52;8.18;;;;;;;21.20;54.10;101239.00;5055940;28;20033;-81
2022/09/04 00:03:45;;;;;;;14.00;8.27;;;;;;;20.98;55.02;101240.47;5056499;28;20027;-81
2022/09/04 00:06:19;;;;;;;12.65;7.75;;;;;;;20.79;55.72;101242.75;5038740;28;20420;-81
2022/09/04 00:08:59;;;;;;;14.63;8.00;;;;;;;20.70;56.55;101246.56;5056131;28;20605;-81
2022/09/04 00:11:36;;;;;;;14.90;8.20;;;;;;;20.69;56.24;101247.47;5056072;28;20086;-81
2022/09/04 00:14:09;;;;;;;12.70;8.13;;;;;;;20.70;56.50;101253.72;5056051;28;20371;-81
2022/09/04 00:16:39;;;;;;;16.65;7.95;;;;;;;20.63;56.54;101257.47;5056543;28;20104;-82
2022/09/04 00:19:12;;;;;;;11.77;7.45;;;;;;;20.64;56.79;101259.25;5055640;28;20083;-82
2022/09/04 00:21:52;;;;;;;10.20;7.80;;;;;;;20.79;55.75;101247.25;5055532;28;20486;-82
2022/09/04 00:24:23;;;;;;;11.60;8.05;;;;;;;20.82;56.14;101253.44;5056131;28;20028;-82
2022/09/04 00:27:09;;;;;;;14.35;8.63;;;;;;;20.70;55.73;101261.78;5055559;28;20033;-81
2022/09/04 00:29:52;;;;;;;12.32;8.18;;;;;;;20.54;56.50;101252.34;5056014;28;20367;-81
2022/09/04 00:32:22;;;;;;;11.68;7.93;;;;;;;20.49;56.70;101258.69;5055320;28;20041;-81
2022/09/04 00:34:57;;;;;;;13.75;8.40;;;;;;;20.35;57.66;101258.13;5055584;28;20032;-80
2022/09/04 00:37:28;;;;;;;11.75;8.18;;;;;;;20.13;57.77;101262.22;5037896;28;20048;-81
2022/09/04 00:40:00;;;;;;;13.05;8.48;;;;;;;20.18;57.82;101262.97;5055788;28;20370;-81
2022/09/04 00:42:37;;;;;;;12.13;7.97;;;;;;;20.22;57.71;101249.47;5037152;28;20036;-81
2022/09/04 00:45:27;;;;;;;11.65;8.45;;;;;;;20.41;56.38;101259.75;5054527;28;20737;-80
2022/09/04 00:48:14;;;;;;;12.73;7.97;;;;;;;20.39;56.79;101257.13;5054842;28;20159;-81
2022/09/04 00:51:13;;;;;;;12.52;8.25;;;;;;;20.53;55.91;101267.56;5055093;28;20025;-81
2022/09/04 00:54:07;;;;;;;12.45;8.25;;;;;;;20.43;56.91;101264.19;5021809;28;20034;-81
2022/09/04 00:56:51;;;;;;;10.98;7.95;;;;;;;20.42;56.69;101274.94;5036881;28;20453;-81
2022/09/04 00:59:53;;;;;;;12.10;8.48;;;;;;;20.38;56.56;101262.50;5054538;28;20064;-80
2022/09/04 01:02:40;;;;;;;13.45;8.50;;;;;;;20.36;56.11;101278.66;5055043;28;20025;-81
2022/09/04 01:05:16;;;;;;;12.15;8.57;;;;;;;20.33;57.29;101284.09;5037433;28;20041;-80
2022/09/04 01:08:01;;;;;;;16.08;8.57;;;;;;;20.40;56.52;101282.16;5055282;28;20029;-81
2022/09/04 01:10:33;;;;;;;14.75;8.93;;;;;;;20.29;57.41;101284.19;5037290;28;20116;-81
2022/09/04 01:13:08;;;;;;;14.10;9.18;;;;;;;20.21;58.35;101287.94;5055204;28;20048;-81
2022/09/04 01:15:57;;;;;;;14.68;8.30;;;;;;;20.29;57.40;101285.06;5054595;28;20029;-81
2022/09/04 01:18:55;;;;;;;17.10;8.50;;;;;;;20.19;57.13;101294.25;5054785;28;20037;-81
2022/09/04 01:21:42;;;;;;;13.63;8.23;;;;;;;20.14;57.25;101294.34;5054558;28;20083;-80
2022/09/04 01:24:22;;;;;;;14.45;8.48;;;;;;;19.84;59.88;101306.63;5054170;28;20025;-81
2022/09/04 01:27:25;;;;;;;9.63;8.20;;;;;;;19.67;59.00;101309.63;5054414;28;20041;-81
2022/09/04 01:30:07;;;;;;;;;;;;;;;19.69;56.41;101312.25;5055048;28;20067;-81
2022/09/04 01:32:52;;;;;;;12.50;8.10;;;;;;;19.48;59.36;101310.84;5054240;28;19913;-81
2022/09/04 01:35:25;;;;;;;12.82;8.50;;;;;;;19.45;60.25;101300.19;5055015;28;20020;-80
2022/09/04 01:38:28;;;;;;;10.55;8.10;;;;;;;19.56;58.82;101308.91;5053830;28;20028;-81
2022/09/04 01:41:02;;;;;;;15.70;8.23;;;;;;;19.62;60.02;101316.88;5054549;28;20029;-81
2022/09/04 01:43:28;;;;;;;11.60;8.70;;;;;;;19.71;60.76;101321.19;5054097;28;20102;-81
2022/09/04 01:46:13;;;;;;;13.98;8.75;;;;;;;19.80;59.72;101322.81;5054007;28;20029;-82
2022/09/04 01:49:19;;;;;;;12.00;8.88;;;;;;;19.89;59.11;101319.94;5053911;28;20037;-81
2022/09/04 01:52:11;;;;;;;13.25;8.05;;;;;;;19.89;59.57;101317.25;5053660;28;20458;-81
2022/09/04 01:55:02;;;;;;;16.33;8.40;;;;;;;19.74;58.62;101313.97;5049290;28;20048;-81
2022/09/04 01:57:45;;;;;;;10.52;8.55;;;;;;;19.57;59.99;101323.19;5053791;28;20025;-81
2022/09/04 02:00:18;;;;;;;11.02;9.10;;;;;;;19.32;61.60;101328.13;5053821;28;20035;-81
2022/09/04 02:02:56;;;;;;;12.60;8.43;;;;;;;19.06;61.79;101326.78;5053643;28;20025;-80
2022/09/04 02:05:47;;;;;;;11.15;8.38;;;;;;;19.07;60.79;101325.88;5053707;28;20175;-81
2022/09/04 02:08:32;;;;;;;13.90;8.70;;;;;;;18.97;62.09;101341.22;5053935;28;20434;-81
2022/09/04 02:11:06;;;;;;;10.60;8.27;;;;;;;19.12;61.82;101347.22;5052758;28;20044;-81
2022/09/04 02:14:09;;;;;;;13.85;8.73;;;;;;;19.29;61.05;101341.59;5053364;28;20086;-81
2022/09/04 02:16:44;;;;;;;;;;;;;;;19.48;58.36;101338.53;5054032;28;20025;-81
2022/09/04 02:19:36;;;;;;;15.52;8.57;;;;;;;19.47;59.75;101355.53;5053529;28;19920;-81
2022/09/04 02:22:07;;;;;;;13.93;9.02;;;;;;;19.43;61.72;101350.25;5053937;28;20112;-81
2022/09/04 02:25:10;;;;;;;14.55;8.98;;;;;;;19.48;59.93;101353.72;5053509;28;20033;-82
2022/09/04 02:28:09;;;;;;;17.90;8.63;;;;;;;19.36;60.77;101359.34;5051576;28;20047;-81
2022/09/04 02:30:52;;;;;;;13.52;8.60;;;;;;;19.35;60.46;101362.91;5036433;28;20025;-81
2022/09/04 02:33:36;;;;;;;13.70;8.77;;;;;;;19.37;61.77;101363.78;5053467;28;20059;-80
2022/09/04 02:36:20;;;;;;;10.82;8.60;;;;;;;19.45;61.03;101361.84;5053116;28;20078;-81
2022/09/04 02:38:50;;;;;;;12.77;8.93;;;;;;;19.15;61.46;101356.09;5053411;28;20033;-81
2022/09/04 02:41:49;;;;;;;13.75;8.45;;;;;;;19.10;61.06;101354.38;5053584;28;20025;-81
2022/09/04 02:44:36;;;;;;;10.35;8.40;;;;;;;19.14;63.90;101358.78;5053592;28;20045;-81
2022/09/04 02:47:34;;;;;;;14.38;9.00;;;;;;;19.24;62.06;101357.75;5053593;28;20029;-81
2022/09/04 02:50:48;;;;;;;13.10;8.40;;;;;;;19.25;61.67;101364.84;5053595;28;20048;-81
2022/09/04 02:53:58;;;;;;;12.82;8.15;;;;;;;19.35;62.07;101368.25;5036580;28;20037;-81
2022/09/04 02:56:32;;;;;;;14.27;8.18;;;;;;;19.20;63.27;101378.34;5035191;28;20056;-81
2022/09/04 02:59:10;;;;;;;14.85;8.90;;;;;;;19.07;63.20;101376.75;5052951;28;20025;-82
2022/09/04 03:01:58;;;;;;;16.38;9.23;;;;;;;19.04;64.03;101379.47;5035192;28;20037;-81
2022/09/04 03:04:35;;;;;;;15.13;8.80;;;;;;;19.16;64.47;101381.09;5035572;28;20025;-81
2022/09/04 03:07:12;;;;;;;10.88;8.63;;;;;;;19.22;64.95;101375.63;5036868;28;20355;-81
2022/09/04 03:09:47;;;;;;;10.30;8.30;;;;;;;19.25;64.71;101383.63;5039299;28;20180;-81
2022/09/04 03:12:30;;;;;;;9.90;7.53;;;;;;;19.18;65.26;101385.50;5056924;28;20037;-81
2022/09/04 03:15:11;;;;;;;14.60;8.68;;;;;;;19.20;64.47;101381.00;5057369;28;20094;-80
2022/09/04 03:17:47;;;;;;;10.60;7.88;;;;;;;19.29;64.15;101387.13;5057111;28;20107;-81
2022/09/04 03:20:27;;;;;;;10.98;8.25;;;;;;;19.24;64.32;101385.41;5038961;28;20025;-81
2022/09/04 03:22:59;;;;;;;10.00;7.65;;;;;;;19.27;64.77;101387.13;5056582;28;20029;-81
2022/09/04 03:25:24;;;;;;;11.23;8.40;;;;;;;19.16;65.26;101384.66;5056634;28;20462;-81
2022/09/04 03:27:50;;;;;;;9.50;7.78;;;;;;;19.19;65.00;101381.94;5038711;28;20033;-81
2022/09/04 03:30:16;;;;;;;10.60;8.60;;;;;;;19.20;65.82;101388.16;5056564;28;20467;-80
2022/09/04 03:33:03;;;;;;;11.82;8.38;;;;;;;19.15;64.22;101384.69;5056163;28;20480;-80
2022/09/04 03:35:38;;;;;;;10.38;8.18;;;;;;;18.96;66.27;101387.63;5056445;28;20103;-80
2022/09/04 03:38:04;;;;;;;9.30;8.20;;;;;;;18.82;66.81;101386.97;5039394;28;20071;-81
2022/09/04 03:41:13;;;;;;;11.65;8.55;;;;;;;18.73;66.58;101395.13;5056343;28;20451;-80
2022/09/04 03:43:44;;;;;;;12.25;8.88;;;;;;;18.53;68.66;101384.66;5056991;28;20032;-81
2022/09/04 03:46:21;;;;;;;11.60;8.20;;;;;;;18.43;69.12;101396.41;5056838;28;20033;-82
2022/09/04 03:49:12;;;;;;;12.63;8.35;;;;;;;18.37;68.06;101393.78;5056226;28;20075;-82
2022/09/04 03:51:40;;;;;;;11.10;8.45;;;;;;;18.25;68.83;101395.72;5038298;28;20025;-82
2022/09/04 03:54:39;;;;;;;13.00;8.68;;;;;;;18.29;68.20;101395.69;5056055;28;20037;-82
2022/09/04 03:57:43;;;;;;;10.85;8.43;;;;;;;18.37;67.49;101397.38;5056694;28;20047;-82
2022/09/04 04:00:17;;;;;;;13.05;8.40;;;;;;;18.45;67.65;101403.47;5038617;28;20063;-81
2022/09/04 04:03:03;;;;;;;12.63;8.50;;;;;;;18.51;67.04;101402.53;5055919;28;20029;-81
2022/09/04 04:06:09;;;;;;;13.13;8.65;;;;;;;18.64;66.38;101400.59;5055822;28;20061;-81
2022/09/04 04:09:06;;;;;;;11.93;8.27;;;;;;;18.64;67.35;101404.16;5006739;28;20037;-81
2022/09/04 04:11:46;;;;;;;12.07;8.23;;;;;;;18.60;66.71;101398.84;5038681;28;20434;-82
2022/09/04 04:14:37;;;;;;;10.68;8.18;;;;;;;18.63;66.54;101405.06;5055753;28;20033;-82
2022/09/04 04:17:40;;;;;;;14.20;8.43;;;;;;;18.53;67.26;101423.00;5038353;28;20029;-83
2022/09/04 04:20:51;;;;;;;11.85;7.80;;;;;;;18.60;67.02;101422.94;5055632;28;20083;-81
2022/09/04 04:23:56;;;;;;;11.20;8.25;;;;;;;18.58;67.01;101422.94;5024974;28;20041;-81
2022/09/04 04:26:24;;;;;;;10.40;7.65;;;;;;;18.58;67.19;101425.63;5056103;28;20455;-82
2022/09/04 04:29:01;;;;;;;9.20;7.63;;;;;;;18.56;66.29;101422.09;5055693;28;20112;-81
2022/09/04 04:32:11;;;;;;;10.38;8.32;;;;;;;18.57;66.71;101429.22;5055958;28;20029;-81
2022/09/04 04:34:57;;;;;;;11.07;8.02;;;;;;;18.50;66.18;101438.25;5055269;28;20387;-81
2022/09/04 04:37:34;;;;;;;11.40;8.45;;;;;;;18.48;68.12;101440.03;5053931;28;20037;-81
2022/09/04 04:40:31;;;;;;;11.93;8.45;;;;;;;18.43;67.28;101441.88;5055506;28;20057;-82
2022/09/04 04:43:06;;;;;;;13.18;8.35;;;;;;;18.32;67.40;101444.69;5038058;28;20367;-82
2022/09/04 04:45:51;;;;;;;12.52;8.77;;;;;;;18.31;68.04;101442.91;5055966;28;20025;-82
2022/09/04 04:48:19;;;;;;;13.32;7.80;;;;;;;18.40;68.99;101436.56;5055582;28;20029;-81
2022/09/04 04:51:19;;;;;;;15.05;9.23;;;;;;;18.47;67.91;101447.19;5055283;28;20051;-82
2022/09/04 04:54:26;;;;;;;12.98;8.43;;;;;;;18.46;67.56;101437.41;5054610;28;20410;-81
2022/09/04 04:57:07;;;;;;;15.77;8.95;;;;;;;18.45;67.98;101445.41;5037220;28;20110;-81
2022/09/04 04:59:54;;;;;;;13.02;8.25;;;;;;;18.55;68.56;101451.56;5054902;28;20029;-81
2022/09/04 05:02:39;;;;;;;10.60;8.10;;;;;;;18.52;67.99;101448.00;5054868;28;20028;-82
2022/09/04 05:05:21;;;;;;;14.68;8.73;;;;;;;18.51;68.54;101446.25;5055074;28;20033;-82
2022/09/04 05:08:05;;;;;;;14.82;9.00;;;;;;;18.44;68.27;101462.38;5054777;28;20085;-82
2022/09/04 05:10:40;;;;;;;12.98;8.38;;;;;;;18.45;68.53;101459.69;5037403;28;20094;-81
2022/09/04 05:13:14;;;;;;;14.18;8.88;;;;;;;18.48;69.62;101466.81;5054599;28;20136;-81
2022/09/04 05:16:07;;;;;;;13.77;8.52;;;;;;;18.51;68.44;101470.34;5054561;28;20095;-81
2022/09/04 05:18:43;;;;;;;17.10;8.93;;;;;;;18.35;68.97;101473.19;5054240;28;20033;-81
2022/09/04 05:21:18;;;;;;;15.05;8.45;;;;;;;18.42;69.64;101466.88;5054413;28;20033;-81
2022/09/04 05:24:16;;;;;;;12.60;8.82;;;;;;;18.47;68.38;101478.41;5054443;28;20028;-81
2022/09/04 05:27:03;;;;;;;14.00;8.93;;;;;;;18.36;68.25;101483.88;5054287;28;20040;-81
2022/09/04 05:29:50;;;;;;;13.43;8.63;;;;;;;18.35;68.24;101484.78;5054292;28;20119;-81
2022/09/04 05:32:32;;;;;;;13.82;8.23;;;;;;;18.43;68.37;101493.63;5055013;28;20114;-81
2022/09/04 05:35:38;;;;;;;15.60;8.88;;;;;;;18.46;69.27;101488.25;5054943;28;20094;-81
2022/09/04 05:38:17;;;;;;;14.43;8.98;;;;;;;18.52;69.74;101503.34;4966398;28;20122;-81
2022/09/04 05:40:53;;;;;;;14.25;8.25;;;;;;;18.59;68.94;101507.72;5054001;28;20435;-81
2022/09/04 05:43:21;;;;;;;13.98;8.88;;;;;;;18.50;69.70;101514.06;5053697;28;20433;-81
2022/09/04 05:46:12;;;;;;;14.85;9.07;;;;;;;18.55;69.51;101505.09;5053916;28;20383;-81
2022/09/04 05:49:01;;;;;;;13.55;8.73;;;;;;;18.53;69.37;101514.00;5054258;28;20071;-81
2022/09/04 05:51:59;;;;;;;14.00;8.50;;;;;;;18.70;70.13;101512.97;5053827;28;20060;-81
2022/09/04 05:54:57;;;;;;;11.50;8.23;;;;;;;18.91;68.17;101523.41;5009408;28;20044;-81
2022/09/04 05:57:50;;;;;;;14.00;8.48;;;;;;;19.14;67.90;101532.91;5053760;28;20045;-81
2022/09/04 06:00:19;;;;;;;11.23;8.20;;;;;;;19.20;68.91;101531.06;5053326;28;20064;-81
2022/09/04 06:03:05;;;;;;;12.07;8.05;;;;;;;19.46;67.69;101530.69;5053906;28;20032;-81
2022/09/04 06:05:49;;;;;;;13.77;7.95;;;;;;;19.55;68.13;101534.13;5036018;28;20459;-81
2022/09/04 06:08:25;;;;;;;12.55;8.30;;;;;;;19.67;67.84;101531.28;5054029;28;20060;-81
2022/09/04 06:11:18;;;;;;;11.88;8.20;;;;;;;19.79;67.66;101532.91;5053635;28;20040;-81
2022/09/04 06:13:59;;;;;;;14.30;8.73;;;;;;;19.73;68.52;101539.22;5036503;28;20360;-81
2022/09/04 06:16:55;;;;;;;11.32;7.43;;;;;;;19.89;66.76;101546.13;5053581;28;20025;-81
2022/09/04 06:19:29;;;;;;;12.00;8.30;;;;;;;19.77;68.57;101547.19;5054041;28;20025;-81
2022/09/04 06:22:10;;;;;;;12.80;8.50;;;;;;;19.82;68.66;101546.25;5053972;28;20025;-80
2022/09/04 06:25:03;;;;;;;12.35;8.55;;;;;;;20.04;68.29;101544.06;5053823;28;20083;-80
2022/09/04 06:28:02;;;;;;;10.00;8.23;;;;;;;20.08;67.85;101546.69;5053749;28;20032;-80
2022/09/04 06:30:55;;;;;;;16.80;8.38;;;;;;;20.22;67.07;101541.97;5053751;28;20150;-80
2022/09/04 06:33:40;;;;;;;10.70;8.00;;;;;;;20.45;66.67;101549.59;5053437;28;20033;-81
2022/09/04 06:36:11;;;;;;;11.60;8.30;;;;;;;20.48;66.71;101554.06;5018313;28;20037;-80
2022/09/04 06:38:54;;;;;;;14.77;8.55;;;;;;;20.46;67.37;101551.34;5053281;28;20483;-80
2022/09/04 06:41:37;;;;;;;10.63;8.50;;;;;;;20.64;66.97;101560.91;5053881;28;20051;-81
2022/09/04 06:44:35;;;;;;;11.82;8.10;;;;;;;20.80;66.61;101569.53;5057655;28;20025;-80
2022/09/04 06:47:21;;;;;;;11.38;8.60;;;;;;;20.76;67.12;101560.66;5039582;28;20041;-81
2022/09/04 06:50:07;;;;;;;11.30;8.10;;;;;;;20.83;66.77;101560.53;5058085;28;20031;-81
2022/09/04 06:52:54;;;;;;;13.23;8.32;;;;;;;21.04;66.62;101561.91;5058044;28;20056;-81
2022/09/04 06:56:01;;;;;;;11.40;8.55;;;;;;;21.28;65.62;101564.03;5057329;28;20151;-81
2022/09/04 06:58:35;;;;;;;13.80;8.85;;;;;;;21.48;65.32;101561.81;5029313;28;20398;-80
2022/09/04 07:01:24;;;;;;;13.45;7.93;;;;;;;21.68;64.49;101557.78;5056670;28;20045;-81
2022/09/04 07:04:08;;;;;;;11.38;8.32;;;;;;;21.72;64.48;101563.06;5057520;28;20370;-80
2022/09/04 07:07:02;;;;;;;14.75;8.48;;;;;;;21.94;63.81;101560.72;5057588;28;20044;-81
2022/09/04 07:09:36;;;;;;;11.52;8.27;;;;;;;21.99;63.33;101564.19;5052491;28;20124;-81
2022/09/04 07:12:16;;;;;;;16.83;8.38;;;;;;;22.21;63.40;101569.06;5039749;28;20340;-81
2022/09/04 07:15:20;;;;;;;10.80;8.27;;;;;;;22.50;62.32;101569.16;5056745;28;20047;-81
2022/09/04 07:18:04;;;;;;;12.07;7.70;;;;;;;22.85;61.79;101571.81;5020176;28;20060;-81
2022/09/04 07:20:36;;;;;;;10.70;8.30;;;;;;;22.95;60.72;101574.22;5056531;28;20029;-81
2022/09/04 07:23:08;;;;;;;11.35;8.20;;;;;;;23.12;60.17;101572.81;5056782;28;20455;-80
2022/09/04 07:26:06;;;;;;;11.60;8.00;;;;;;;23.31;59.81;101571.34;5056996;28;20079;-80
2022/09/04 07:28:46;;;;;;;11.68;7.50;;;;;;;23.63;59.37;101577.56;5056719;28;20033;-80
2022/09/04 07:31:23;;;;;;;14.15;7.68;;;;;;;23.91;58.60;101586.56;5056963;28;20033;-81
2022/09/04 07:33:51;;;;;;;11.48;7.38;;;;;;;24.26;57.04;101580.91;5057055;28;20029;-79
2022/09/04 07:36:24;;;;;;;10.05;7.63;;;;;;;24.27;57.03;101585.38;5056650;28;20124;-81
2022/09/04 07:39:09;;;;;;;11.63;7.55;;;;;;;24.28;56.88;101584.44;5039250;28;20336;-79
2022/09/04 07:41:55;;;;;;;10.65;7.57;;;;;;;24.35;56.95;101591.41;5056281;28;20025;-78
2022/09/04 07:44:23;;;;;;;17.05;7.90;;;;;;;24.49;56.47;101599.91;5056207;28;20386;-78
2022/09/04 07:47:19;;;;;;;14.20;8.15;;;;;;;24.54;56.60;101600.66;5056126;28;20032;-78
2022/09/04 07:49:59;;;;;;;11.18;8.07;;;;;;;24.37;56.61;101600.34;5056080;28;20470;-79
2022/09/04 07:52:38;;;;;;;10.95;7.95;;;;;;;24.70;55.85;101612.66;5056011;28;20063;-78
2022/09/04 07:55:21;;;;;;;10.57;7.57;;;;;;;25.04;54.75;101608.72;5055738;28;20514;-78
2022/09/04 07:58:18;;;;;;;11.68;7.53;;;;;;;25.26;55.05;101613.38;5055954;28;20021;-78
2022/09/04 08:01:02;;;;;;;10.88;8.02;;;;;;;25.46;53.62;101605.38;5055918;28;20044;-80
2022/09/04 08:03:30;;;;;;;14.90;8.13;;;;;;;25.15;53.82;101616.50;5056506;28;20021;-80
2022/09/04 08:06:21;;;;;;;11.45;8.27;;;;;;;24.96;54.31;101608.13;5056118;28;20078;-80
2022/09/04 08:08:57;;;;;;;12.75;8.30;;;;;;;25.01;54.81;101607.97;5038253;28;20036;-80
2022/09/04 08:11:51;;;;;;;13.65;8.27;;;;;;;25.23;54.40;101614.38;5057167;28;20029;-80
2022/09/04 08:14:49;;;;;;;13.30;8.18;;;;;;;25.68;53.89;101618.94;5038609;28;20482;-80
2022/09/04 08:17:35;;;;;;;11.07;8.70;;;;;;;25.94;51.90;101615.19;5039047;28;20040;-80
2022/09/04 08:20:33;;;;;;;13.38;9.05;;;;;;;26.03;51.68;101616.66;5056823;28;20036;-81
2022/09/04 08:23:41;;;;;;;15.65;9.18;;;;;;;26.31;51.81;101617.25;5056144;28;20033;-80
2022/09/04 08:26:32;;;;;;;13.43;9.30;;;;;;;26.69;50.39;101618.34;5044723;28;20497;-80
2022/09/04 08:29:16;;;;;;;14.43;9.02;;;;;;;26.89;49.48;101621.97;5055561;28;20089;-80
2022/09/04 08:32:03;;;;;;;12.93;8.48;;;;;;;26.99;49.04;101619.75;5055348;28;20105;-79
2022/09/04 08:34:46;;;;;;;11.70;8.50;;;;;;;27.09;48.41;101635.56;5055903;28;20037;-79
2022/09/04 08:37:23;;;;;;;14.93;8.23;;;;;;;27.29;48.72;101633.78;5055173;28;20021;-77
2022/09/04 08:40:26;;;;;;;13.63;8.30;;;;;;;27.49;48.58;101636.41;5037841;28;20033;-77
2022/09/04 08:43:02;;;;;;;11.98;8.80;;;;;;;27.52;47.16;101632.69;5055027;28;20025;-77
2022/09/04 08:46:18;;;;;;;10.13;7.80;;;;;;;27.87;46.73;101637.31;5055076;28;20498;-77
2022/09/04 08:49:17;;;;;;;13.15;7.80;;;;;;;27.57;47.07;101641.47;4957784;28;20484;-79
2022/09/04 08:51:42;;;;;;;11.10;7.40;;;;;;;27.60;47.59;101639.50;4974093;28;20034;-79
2022/09/04 08:54:32;;;;;;;9.45;7.38;;;;;;;27.78;46.69;101645.91;5029288;28;20049;-79
2022/09/04 08:57:00;;;;;;;9.82;7.40;;;;;;;27.78;46.04;101645.03;5054833;28;20044;-77
2022/09/04 08:59:44;;;;;;;9.80;7.00;;;;;;;27.90;47.03;101649.88;5054632;28;20463;-78
2022/09/04 09:02:58;;;;;;;12.90;7.65;;;;;;;28.16;46.63;101644.00;5054627;28;20033;-78
2022/09/04 09:05:42;;;;;;;9.82;5.50;;;;;;;28.34;45.53;101638.59;5045817;28;20064;-80
2022/09/04 09:08:23;;;;;;;10.02;6.25;;;;;;;28.48;45.07;101648.81;5054223;28;20076;-79
2022/09/04 09:11:16;;;;;;;11.40;6.50;;;;;;;28.45;44.73;101650.72;5055434;28;20051;-78
2022/09/04 09:14:23;;;;;;;9.85;6.55;;;;;;;28.68;44.55;101645.94;5054189;28;20060;-78
2022/09/04 09:17:11;;;;;;;7.95;5.47;;;;;;;28.97;43.81;101644.44;5054029;28;20041;-77
2022/09/04 09:19:58;;;;;;;10.73;5.07;;;;;;;29.09;42.83;101651.94;5036318;28;20104;-77
2022/09/04 09:22:36;;;;;;;10.88;4.63;;;;;;;29.00;42.64;101649.72;5054553;28;20109;-78
2022/09/04 09:25:23;;;;;;;7.18;4.78;;;;;;;29.18;42.15;101642.38;5054218;28;20087;-78
2022/09/04 09:27:54;;;;;;;8.00;4.53;;;;;;;28.70;42.46;101641.31;5054503;28;20122;-80
2022/09/04 09:30:22;;;;;;;7.47;4.57;;;;;;;28.89;41.68;101633.91;5054208;28;20059;-79
2022/09/04 09:34:01;;;;;;;6.30;4.07;;;;;;;29.31;42.80;101637.16;5054446;28;20032;-79
2022/09/04 09:36:45;;;;;;;7.55;3.92;;;;;;;29.97;40.82;101630.72;4915743;29;20043;-78
2022/09/04 09:39:29;;;;;;;8.05;4.43;;;;;;;29.98;40.00;101632.47;4950414;29;20050;-78
2022/09/04 09:42:12;;;;;;;10.07;4.80;;;;;;;30.02;40.44;101632.22;5049732;28;20056;-79
2022/09/04 09:45:15;;;;;;;7.85;3.75;;;;;;;30.41;40.53;101633.59;5054329;28;20037;-79
2022/09/04 09:48:17;;;;;;;6.57;3.50;;;;;;;30.57;39.57;101622.59;5054087;28;20059;-79
2022/09/04 09:51:16;;;;;;;5.13;3.35;;;;;;;30.69;39.16;101630.03;5053832;28;20116;-79
2022/09/04 09:54:09;;;;;;;5.05;3.58;;;;;;;30.40;38.08;101632.69;5054738;28;20036;-79
2022/09/04 09:57:12;;;;;;;5.50;3.50;;;;;;;30.47;38.75;101619.56;5053788;28;20080;-79
2022/09/04 10:00:07;;;;;;;4.10;3.03;;;;;;;30.67;39.32;101630.16;5053885;28;20028;-78
2022/09/04 10:02:54;;;;;;;5.88;2.92;;;;;;;30.16;39.46;101628.72;5051357;28;20037;-79
2022/09/04 10:05:38;;;;;;;5.13;3.05;;;;;;;29.94;38.57;101632.66;5053626;28;20043;-81
2022/09/04 10:08:22;;;;;;;5.43;3.20;;;;;;;29.86;38.68;101637.69;5053812;28;20032;-83
2022/09/04 10:11:26;;;;;;;5.38;3.30;;;;;;;29.72;39.25;101640.28;5053854;28;20075;-82
2022/09/04 10:14:18;;;;;;;6.57;3.30;;;;;;;29.57;40.33;101646.63;4982126;28;20039;-80
2022/09/04 10:17:21;;;;;;;5.38;3.50;;;;;;;29.94;39.47;101632.66;5053984;28;20036;-81
2022/09/04 10:20:15;;;;;;;7.07;3.83;;;;;;;29.90;39.21;101646.56;5054038;28;20025;-81
2022/09/04 10:22:59;;;;;;;5.40;3.55;;;;;;;29.96;40.27;101634.41;5053275;28;20039;-81
2022/09/04 10:25:49;;;;;;;7.25;4.10;;;;;;;30.37;39.51;101629.28;5053701;28;20039;-81
2022/09/04 10:28:29;;;;;;;5.80;3.63;;;;;;;30.79;37.17;101634.03;5035543;28;20099;-80
2022/09/04 10:31:24;;;;;;;3.70;2.70;;;;;;;31.22;37.11;101628.59;5053412;28;20467;-81
2022/09/04 10:34:22;;;;;;;4.32;2.20;;;;;;;31.13;34.95;101645.53;5053386;28;20029;-81
2022/09/04 10:37:07;;;;;;;5.53;2.40;;;;;;;30.84;35.63;101636.47;4982557;28;20040;-80
2022/09/04 10:43:08;;;;;;;4.72;2.30;;;;;;;31.20;35.05;101641.44;5053439;28;20072;-81
2022/09/04 10:45:44;;;;;;;4.95;2.13;;;;;;;31.94;32.62;101636.72;5053693;28;20135;-82
2022/09/04 10:48:31;;;;;;;6.55;2.50;;;;;;;31.72;33.15;101645.44;5053319;28;20025;-81
2022/09/04 10:51:26;;;;;;;4.70;2.33;;;;;;;31.54;33.44;101642.06;5053579;28;20382;-80
2022/09/04 10:54:11;;;;;;;3.08;2.20;;;;;;;31.82;31.99;101635.66;5054078;28;20083;-74
2022/09/04 10:56:55;;;;;;;3.88;2.08;;;;;;;31.46;32.27;101639.81;5053577;28;20406;-74
2022/09/04 10:59:38;;;;;;;3.67;2.05;;;;;;;31.23;32.75;101643.13;5053174;28;20044;-76
2022/09/04 11:02:22;;;;;;;3.67;2.25;;;;;;;31.25;33.10;101638.44;5053592;28;20065;-74
2022/09/04 11:05:07;;;;;;;3.08;2.35;;;;;;;31.55;32.89;101632.88;5053167;28;20493;-75
2022/09/04 11:07:35;;;;;;;5.38;2.50;;;;;;;31.79;32.20;101633.13;5053356;28;20433;-74
2022/09/04 11:10:45;;;;;;;4.22;2.30;;;;;;;32.03;32.13;101628.78;5035927;28;20032;-78
2022/09/04 11:13:49;;;;;;;23.27;2.85;;;;;;;32.53;31.41;101632.69;5011890;28;20492;-80
2022/09/04 11:16:48;;;;;;;3.33;2.28;;;;;;;32.35;30.94;101632.09;5022787;28;20099;-82
2022/09/04 11:19:19;;;;;;;17.10;2.53;;;;;;;32.21;30.49;101634.88;5052726;28;20033;-81
2022/09/04 11:22:00;;;;;;;3.83;2.60;;;;;;;32.22;30.41;101628.44;5053387;28;20040;-82
2022/09/04 11:24:54;;;;;;;9.15;2.80;;;;;;;32.11;31.36;101633.75;5053320;28;20029;-82
2022/09/04 11:27:53;;;;;;;3.40;2.35;;;;;;;32.40;30.45;101627.19;5053293;28;20029;-82
2022/09/04 11:30:50;;;;;;;6.10;2.45;;;;;;;31.82;31.29;101635.66;5056648;28;20478;-82
2022/09/04 11:33:41;;;;;;;2.80;2.40;;;;;;;31.40;30.76;101629.31;5056865;28;20032;-82
2022/09/04 11:36:51;;;;;;;3.97;2.42;;;;;;;30.99;31.14;101629.16;5056793;28;20124;-81
2022/09/04 11:40:01;;;;;;;6.63;2.50;;;;;;;30.58;32.61;101628.00;5010655;28;20033;-82
2022/09/04 11:42:42;;;;;;;4.28;2.70;;;;;;;30.41;32.69;101630.84;5038958;28;20086;-81
2022/09/04 11:45:42;;;;;;;4.35;2.58;;;;;;;30.49;32.73;101636.69;5056384;28;20035;-81
2022/09/04 11:48:53;;;;;;;5.95;2.75;;;;;;;30.50;32.45;101638.47;5056053;28;20029;-82
2022/09/04 11:51:39;;;;;;;3.67;2.67;;;;;;;30.47;32.80;101641.38;4984751;28;20187;-82
2022/09/04 11:54:35;;;;;;;4.05;2.60;;;;;;;30.83;32.06;101630.09;5056082;28;20025;-82
2022/09/04 11:57:23;;;;;;;5.70;2.78;;;;;;;30.83;30.74;101631.94;5038069;28;20423;-82
2022/09/04 12:00:06;;;;;;;7.93;3.10;;;;;;;30.75;31.70;101632.44;5056406;28;20021;-82
2022/09/04 12:02:44;;;;;;;5.95;2.85;;;;;;;30.89;31.36;101628.88;5055975;28;20028;-82
2022/09/04 12:05:09;;;;;;;5.82;2.83;;;;;;;30.88;30.07;101629.84;5037994;28;20124;-82
2022/09/04 12:08:02;;;;;;;7.68;3.00;;;;;;;31.43;30.30;101634.53;5055709;28;20072;-83
2022/09/04 12:10:41;;;;;;;6.03;2.80;;;;;;;31.11;29.94;101634.72;5056136;28;20037;-82
2022/09/04 12:13:45;;;;;;;6.32;2.70;;;;;;;31.37;29.68;101638.56;5055802;28;20071;-82
2022/09/04 12:16:49;;;;;;;6.22;2.72;;;;;;;31.45;29.57;101643.53;5011287;28;20049;-82
2022/09/04 12:19:25;;;;;;;5.10;2.83;;;;;;;31.65;28.57;101634.06;4955192;29;20106;-82
2022/09/04 12:22:18;;;;;;;8.05;2.70;;;;;;;31.93;29.25;101646.78;5043398;28;20493;-82
2022/09/04 12:25:00;;;;;;;6.93;2.90;;;;;;;32.09;28.60;101643.91;5055627;28;20033;-82
2022/09/04 12:27:57;;;;;;;4.30;2.60;;;;;;;31.86;28.71;101648.16;5055815;28;20171;-83
2022/09/04 12:30:32;;;;;;;6.55;2.88;;;;;;;31.64;28.52;101649.53;5055811;28;20385;-82
2022/09/04 12:33:07;;;;;;;3.75;2.60;;;;;;;31.91;28.68;101644.16;5055528;28;20116;-82
2022/09/04 12:35:55;;;;;;;6.28;2.83;;;;;;;32.06;28.44;101641.38;5055444;28;20099;-82
2022/09/04 12:38:47;;;;;;;5.65;2.60;;;;;;;32.19;28.73;101642.31;5055416;28;20029;-82
2022/09/04 12:41:17;;;;;;;5.85;2.67;;;;;;;32.15;27.91;101647.09;5055302;28;20037;-82
2022/09/04 12:44:00;;;;;;;6.32;2.60;;;;;;;31.77;28.33;101644.16;5054964;28;20390;-82
2022/09/04 12:46:49;;;;;;;3.05;2.30;;;;;;;31.53;28.98;101652.13;5037545;28;20094;-82
2022/09/04 12:49:54;;;;;;;4.35;2.70;;;;;;;31.15;29.81;101654.53;5055050;28;20477;-82